createdAt,value
2022-09-13T00:00:58.841Z,73.90
2022-09-13T00:06:14.110Z,73.10
2022-09-13T00:11:22.228Z,73.10
2022-09-13T00:16:29.492Z,72.70
2022-09-13T00:21:32.899Z,72.30
2022-09-13T00:26:37.602Z,72.50
2022-09-13T00:31:41.071Z,72.40
2022-09-13T00:36:45.966Z,72.50
2022-09-13T00:41:50.741Z,72.60
2022-09-13T00:46:54.305Z,72.50
2022-09-13T00:52:01.207Z,72.90
2022-09-13T00:57:06.737Z,72.80
2022-09-13T01:02:10.666Z,73.10
2022-09-13T01:07:16.297Z,73.30
2022-09-13T01:12:31.970Z,73.60
2022-09-13T01:17:36.120Z,73.80
2022-09-13T01:23:05.612Z,73.80
2022-09-13T01:28:34.094Z,74.00
2022-09-13T01:33:54.708Z,74.00
2022-09-13T01:39:04.260Z,73.40
2022-09-13T01:44:16.301Z,73.10
2022-09-13T01:49:26.480Z,72.90
2022-09-13T01:54:39.143Z,72.90
2022-09-13T01:59:51.618Z,73.40
2022-09-13T02:05:05.069Z,73.50
2022-09-13T02:10:14.249Z,73.20
2022-09-13T02:15:21.468Z,73.30
2022-09-13T02:20:30.064Z,73.70
2022-09-13T02:25:36.196Z,73.50
2022-09-13T02:30:44.401Z,73.30
2022-09-13T02:35:55.303Z,73.10
2022-09-13T02:41:02.990Z,72.80
2022-09-13T02:46:17.534Z,72.70
2022-09-13T02:51:31.416Z,72.70
2022-09-13T02:56:42.685Z,72.80
2022-09-13T03:01:50.429Z,73.00
2022-09-13T03:06:55.535Z,73.10
2022-09-13T03:12:13.738Z,73.40
2022-09-13T03:17:36.049Z,73.70
2022-09-13T03:23:14.110Z,74.00
2022-09-13T03:28:26.078Z,73.90
2022-09-13T03:33:36.424Z,73.90
2022-09-13T03:38:46.605Z,74.30
2022-09-13T03:43:53.857Z,74.30
2022-09-13T03:48:58.705Z,74.40
2022-09-13T03:54:06.382Z,74.50
2022-09-13T03:59:09.756Z,74.50
2022-09-13T04:04:13.163Z,74.50
2022-09-13T04:09:18.101Z,74.30
2022-09-13T04:14:21.850Z,74.90
2022-09-13T04:19:26.530Z,74.80
2022-09-13T04:24:32.116Z,74.80
2022-09-13T04:29:35.500Z,74.80
2022-09-13T04:34:39.104Z,74.60
2022-09-13T04:39:44.407Z,74.80
2022-09-13T04:44:50.131Z,74.70
2022-09-13T04:49:53.440Z,74.90
2022-09-13T04:55:01.457Z,74.90
2022-09-13T05:00:06.319Z,74.80
2022-09-13T05:05:10.793Z,75.10
2022-09-13T05:10:19.405Z,75.20
2022-09-13T05:15:23.325Z,75.30
2022-09-13T05:20:26.727Z,75.50
2022-09-13T05:25:31.494Z,75.90
2022-09-13T05:30:37.453Z,75.90
2022-09-13T05:35:43.008Z,76.10
2022-09-13T05:40:48.646Z,76.20
2022-09-13T05:45:52.096Z,76.30
2022-09-13T05:50:58.290Z,76.70
2022-09-13T05:56:04.001Z,76.80
2022-09-13T06:01:07.743Z,77.00
2022-09-13T06:06:12.203Z,77.20
2022-09-13T06:11:17.499Z,77.50
2022-09-13T06:16:21.528Z,78.40
2022-09-13T06:21:28.951Z,78.10
2022-09-13T06:26:35.023Z,77.80
2022-09-13T06:31:43.715Z,77.50
2022-09-13T06:36:47.407Z,78.10
2022-09-13T06:41:52.066Z,78.40
2022-09-13T06:46:55.434Z,78.50
2022-09-13T06:51:59.081Z,78.80
2022-09-13T06:57:04.446Z,78.20
2022-09-13T07:02:08.688Z,77.90
2022-09-13T07:07:12.210Z,77.90
2022-09-13T07:12:20.452Z,77.60
2022-09-13T07:17:24.841Z,77.80
2022-09-13T07:22:30.253Z,78.10
2022-09-13T07:27:34.934Z,77.90
2022-09-13T07:32:38.245Z,77.50
2022-09-13T07:37:42.434Z,76.90
2022-09-13T07:42:47.459Z,77.10
2022-09-13T07:47:53.703Z,77.00
2022-09-13T07:52:57.296Z,77.00
2022-09-13T07:58:01.952Z,76.50
2022-09-13T08:03:05.394Z,75.90
2022-09-13T08:08:08.737Z,75.40
2022-09-13T08:13:13.911Z,75.60
2022-09-13T08:18:17.722Z,75.10
2022-09-13T08:23:21.662Z,74.10
2022-09-13T08:28:27.811Z,74.50
2022-09-13T08:33:31.370Z,74.00
2022-09-13T08:38:35.045Z,73.00
2022-09-13T08:43:50.488Z,72.70
2022-09-13T08:48:59.842Z,72.50
2022-09-13T08:54:04.616Z,71.80
2022-09-13T08:59:27.731Z,71.90
2022-09-13T09:04:40.848Z,71.20
2022-09-13T09:09:49.530Z,70.30
2022-09-13T09:15:02.188Z,70.30
2022-09-13T09:20:18.546Z,70.10
2022-09-13T09:25:24.043Z,69.60
2022-09-13T09:30:38.266Z,69.20
2022-09-13T09:35:53.162Z,68.60
2022-09-13T09:40:56.602Z,67.40
2022-09-13T09:46:05.421Z,65.60
2022-09-13T09:51:11.639Z,65.50
2022-09-13T09:56:25.328Z,63.80
2022-09-13T10:01:32.523Z,63.90
2022-09-13T10:06:38.350Z,62.30
2022-09-13T10:11:46.390Z,61.30
2022-09-13T10:17:05.320Z,61.20
2022-09-13T10:22:13.117Z,60.50
2022-09-13T10:27:39.352Z,60.80
2022-09-13T10:32:55.800Z,60.90
2022-09-13T10:37:59.430Z,61.10
2022-09-13T10:43:05.402Z,61.50
2022-09-13T10:48:15.981Z,61.50
2022-09-13T10:53:34.433Z,61.50
2022-09-13T10:58:37.937Z,62.40
2022-09-13T11:04:32.654Z,62.50
2022-09-13T11:09:44.398Z,60.60
2022-09-13T11:15:02.530Z,60.00
2022-09-13T11:20:30.273Z,60.40
2022-09-13T11:25:50.116Z,60.70
2022-09-13T11:31:09.249Z,60.30
2022-09-13T11:36:26.708Z,60.10
2022-09-13T11:41:43.097Z,59.40
2022-09-13T11:46:52.017Z,58.40
2022-09-13T11:52:02.831Z,58.70
2022-09-13T11:57:11.810Z,58.90
2022-09-13T12:02:22.631Z,57.70
2022-09-13T12:07:38.475Z,57.90
2022-09-13T12:12:44.409Z,57.60
2022-09-13T12:17:52.013Z,56.90
2022-09-13T12:22:56.147Z,57.60
2022-09-13T12:28:09.091Z,57.40
2022-09-13T12:33:16.087Z,57.90
2022-09-13T12:39:01.213Z,57.90
2022-09-13T12:44:35.132Z,58.50
2022-09-13T12:50:01.740Z,57.70
2022-09-13T12:55:47.788Z,57.90
2022-09-13T13:01:09.886Z,58.10
2022-09-13T13:06:26.668Z,57.70
2022-09-13T13:11:41.674Z,57.20
2022-09-13T13:16:48.434Z,57.40
2022-09-13T13:21:51.820Z,57.40
2022-09-13T13:26:57.552Z,57.10
2022-09-13T13:32:12.911Z,57.50
2022-09-13T13:37:44.102Z,57.10
2022-09-13T13:42:48.061Z,56.60
2022-09-13T13:48:12.623Z,57.10
2022-09-13T13:53:23.273Z,57.00
2022-09-13T13:58:34.683Z,57.70
2022-09-13T14:04:11.578Z,58.10
2022-09-13T14:09:33.197Z,58.80
2022-09-13T14:14:57.613Z,58.60
2022-09-13T14:20:06.505Z,58.20
2022-09-13T14:25:24.612Z,58.10
2022-09-13T14:30:32.542Z,58.50
2022-09-13T14:35:39.257Z,58.40
2022-09-13T14:40:42.732Z,58.80
2022-09-13T14:45:48.543Z,58.60
2022-09-13T14:50:57.970Z,58.60
2022-09-13T14:56:04.641Z,58.10
2022-09-13T15:01:11.768Z,58.30
2022-09-13T15:06:26.060Z,58.40
2022-09-13T15:11:32.834Z,58.60
2022-09-13T15:16:36.200Z,58.30
2022-09-13T15:21:41.245Z,58.30
2022-09-13T15:26:44.525Z,55.90
2022-09-13T15:31:47.922Z,54.40
2022-09-13T15:37:09.813Z,55.30
2022-09-13T15:42:13.248Z,54.50
2022-09-13T15:47:19.647Z,54.40
2022-09-13T15:52:24.363Z,55.80
2022-09-13T15:57:31.153Z,54.60
2022-09-13T16:02:35.689Z,55.50
2022-09-13T16:07:41.029Z,55.80
2022-09-13T16:12:44.378Z,56.20
2022-09-13T16:17:47.748Z,56.00
2022-09-13T16:22:52.481Z,55.00
2022-09-13T16:27:55.776Z,55.30
2022-09-13T16:32:59.321Z,55.80
2022-09-13T16:38:04.042Z,56.10
2022-09-13T16:44:32.597Z,56.10
2022-09-13T16:49:36.142Z,57.60
2022-09-13T16:54:39.681Z,57.70
2022-09-13T16:59:46.809Z,57.90
2022-09-13T17:04:50.426Z,58.20
2022-09-13T17:09:54.030Z,58.30
2022-09-13T17:14:59.119Z,58.40
2022-09-13T17:20:03.647Z,58.60
2022-09-13T17:25:08.599Z,58.80
2022-09-13T17:30:14.897Z,59.20
2022-09-13T17:35:18.538Z,59.40
2022-09-13T17:40:21.940Z,60.50
2022-09-13T17:45:27.309Z,59.60
2022-09-13T17:50:30.693Z,59.90
2022-09-13T17:55:33.943Z,60.00
2022-09-13T18:00:38.625Z,60.00
2022-09-13T18:05:42.250Z,60.00
2022-09-13T18:11:10.189Z,60.00
2022-09-13T18:16:13.502Z,60.20
2022-09-13T18:21:21.116Z,60.20
2022-09-13T18:26:25.759Z,60.30
2022-09-13T18:31:32.165Z,60.40
2022-09-13T18:36:36.827Z,60.40
2022-09-13T18:41:41.362Z,60.40
2022-09-13T18:46:46.911Z,60.20
2022-09-13T18:51:50.504Z,60.50
2022-09-13T18:56:55.789Z,60.80
2022-09-13T19:02:00.578Z,60.90
2022-09-13T19:07:06.649Z,61.10
2022-09-13T19:12:09.980Z,61.40
2022-09-13T19:17:15.101Z,61.40
2022-09-13T19:22:18.492Z,61.70
2022-09-13T19:27:22.359Z,61.60
2022-09-13T19:32:27.061Z,61.70
2022-09-13T19:37:30.415Z,61.90
2022-09-13T19:42:33.690Z,62.20
2022-09-13T19:48:49.086Z,62.30
2022-09-13T19:53:03.242Z,62.40
2022-09-13T19:58:06.814Z,62.40
2022-09-13T20:03:11.634Z,62.60
2022-09-13T20:08:15.860Z,62.70
2022-09-13T20:13:19.667Z,62.90
2022-09-13T20:18:25.211Z,62.60
2022-09-13T20:23:29.019Z,63.00
2022-09-13T20:28:32.625Z,63.30
2022-09-13T20:33:40.628Z,63.10
2022-09-13T20:38:48.301Z,63.30
2022-09-13T20:43:52.634Z,63.60
2022-09-13T20:48:57.289Z,63.60
2022-09-13T20:54:01.317Z,63.80
2022-09-13T20:59:05.487Z,64.10
2022-09-13T21:04:10.513Z,64.00
2022-09-13T21:09:14.057Z,64.10
2022-09-13T21:14:17.448Z,64.20
2022-09-13T21:19:22.388Z,64.30
2022-09-13T21:24:25.760Z,64.50
2022-09-13T21:29:29.316Z,64.80
2022-09-13T21:34:34.325Z,64.90
2022-09-13T21:39:37.780Z,65.00
2022-09-13T21:44:41.371Z,64.80
2022-09-13T21:49:46.298Z,65.10
2022-09-13T21:54:49.578Z,65.80
2022-09-13T21:59:53.013Z,66.10
2022-09-13T22:04:57.799Z,66.20
2022-09-13T22:10:01.267Z,65.90
2022-09-13T22:15:04.943Z,66.00
2022-09-13T22:20:10.899Z,66.50
2022-09-13T22:25:14.242Z,66.50
2022-09-13T22:30:17.624Z,66.70
2022-09-13T22:35:22.309Z,67.00
2022-09-13T22:40:25.649Z,67.30
2022-09-13T22:45:29.313Z,67.80
2022-09-13T22:50:33.995Z,67.60
2022-09-13T22:55:37.273Z,67.70
2022-09-13T23:00:40.974Z,67.80
2022-09-13T23:05:52.660Z,68.10
2022-09-13T23:10:56.418Z,68.10
2022-09-13T23:16:03.115Z,68.00
2022-09-13T23:21:08.273Z,68.10
2022-09-13T23:26:17.398Z,68.20
2022-09-13T23:31:22.045Z,68.50
2022-09-13T23:36:29.413Z,68.80
2022-09-13T23:41:34.163Z,69.00
2022-09-13T23:46:37.546Z,68.90
2022-09-13T23:51:42.236Z,69.30
2022-09-13T23:56:45.785Z,69.20
